sensor_id;sensor_type;location;lat;lon;timestamp;temperature;humidity
19007;DHT22;9636;47.382;8.480;2022-08-19T00:01:18;18.40;99.90
19007;DHT22;9636;47.382;8.480;2022-08-19T00:03:45;18.50;99.90
19007;DHT22;9636;47.382;8.480;2022-08-19T00:06:12;18.50;99.90
19007;DHT22;9636;47.382;8.480;2022-08-19T00:08:39;18.40;99.90
19007;DHT22;9636;47.382;8.480;2022-08-19T00:11:06;18.30;99.90
19007;DHT22;9636;47.382;8.480;2022-08-19T00:13:35;18.20;99.90
19007;DHT22;9636;47.382;8.480;2022-08-19T00:16:03;18.10;99.90
19007;DHT22;9636;47.382;8.480;2022-08-19T00:18:31;18.10;99.90
19007;DHT22;9636;47.382;8.480;2022-08-19T00:20:58;18.20;99.90
19007;DHT22;9636;47.382;8.480;2022-08-19T00:23:25;18.40;99.90
19007;DHT22;9636;47.382;8.480;2022-08-19T00:25:53;18.30;99.90
19007;DHT22;9636;47.382;8.480;2022-08-19T00:28:19;18.40;99.90
19007;DHT22;9636;47.382;8.480;2022-08-19T00:30:48;18.40;99.90
19007;DHT22;9636;47.382;8.480;2022-08-19T00:33:17;18.40;99.90
19007;DHT22;9636;47.382;8.480;2022-08-19T00:35:44;18.20;99.90
19007;DHT22;9636;47.382;8.480;2022-08-19T00:38:10;18.10;99.90
19007;DHT22;9636;47.382;8.480;2022-08-19T06:07:26;18.70;99.90
19007;DHT22;9636;47.382;8.480;2022-08-19T06:09:54;18.60;99.90
19007;DHT22;9636;47.382;8.480;2022-08-19T06:12:24;18.70;99.90
19007;DHT22;9636;47.382;8.480;2022-08-19T06:15:30;18.60;99.90
19007;DHT22;9636;47.382;8.480;2022-08-19T06:18:09;18.60;99.90
19007;DHT22;9636;47.382;8.480;2022-08-19T06:43:15;18.50;99.90
19007;DHT22;9636;47.382;8.480;2022-08-19T06:45:41;18.50;99.90
19007;DHT22;9636;47.382;8.480;2022-08-19T06:48:08;18.60;99.90
19007;DHT22;9636;47.382;8.480;2022-08-19T06:50:35;18.40;99.90
19007;DHT22;9636;47.382;8.480;2022-08-19T06:53:02;18.30;99.90
19007;DHT22;9636;47.382;8.480;2022-08-19T06:55:30;18.40;99.90
19007;DHT22;9636;47.382;8.480;2022-08-19T06:57:57;18.40;99.90
19007;DHT22;9636;47.382;8.480;2022-08-19T07:00:25;18.40;99.90
19007;DHT22;9636;47.382;8.480;2022-08-19T07:02:52;18.40;99.90
19007;DHT22;9636;47.382;8.480;2022-08-19T07:05:19;18.40;99.90
19007;DHT22;9636;47.382;8.480;2022-08-19T07:07:46;18.50;99.90
19007;DHT22;9636;47.382;8.480;2022-08-19T07:10:13;18.40;99.90
19007;DHT22;9636;47.382;8.480;2022-08-19T07:12:40;18.50;99.90
19007;DHT22;9636;47.382;8.480;2022-08-19T07:15:07;18.40;99.90
19007;DHT22;9636;47.382;8.480;2022-08-19T07:17:37;18.50;99.90
19007;DHT22;9636;47.382;8.480;2022-08-19T07:20:06;18.50;99.90
19007;DHT22;9636;47.382;8.480;2022-08-19T07:22:33;18.60;99.90
19007;DHT22;9636;47.382;8.480;2022-08-19T07:25:00;18.70;99.90
19007;DHT22;9636;47.382;8.480;2022-08-19T07:27:29;18.60;99.90
19007;DHT22;9636;47.382;8.480;2022-08-19T07:29:55;18.60;99.90
19007;DHT22;9636;47.382;8.480;2022-08-19T07:32:23;18.70;99.90
19007;DHT22;9636;47.382;8.480;2022-08-19T07:34:53;18.70;99.90
19007;DHT22;9636;47.382;8.480;2022-08-19T07:37:19;18.60;99.90
19007;DHT22;9636;47.382;8.480;2022-08-19T07:39:47;18.70;99.90
19007;DHT22;9636;47.382;8.480;2022-08-19T07:42:13;18.60;99.90
19007;DHT22;9636;47.382;8.480;2022-08-19T07:44:41;18.60;99.90
19007;DHT22;9636;47.382;8.480;2022-08-19T07:47:08;18.60;99.90
19007;DHT22;9636;47.382;8.480;2022-08-19T07:49:35;18.50;99.90
19007;DHT22;9636;47.382;8.480;2022-08-19T07:52:07;18.60;99.90
19007;DHT22;9636;47.382;8.480;2022-08-19T07:54:36;18.40;99.90
19007;DHT22;9636;47.382;8.480;2022-08-19T07:57:04;18.40;99.90
19007;DHT22;9636;47.382;8.480;2022-08-19T07:59:31;18.50;99.90
19007;DHT22;9636;47.382;8.480;2022-08-19T08:01:58;18.50;99.90
19007;DHT22;9636;47.382;8.480;2022-08-19T08:04:26;18.60;99.90
19007;DHT22;9636;47.382;8.480;2022-08-19T08:07:12;18.50;99.90
19007;DHT22;9636;47.382;8.480;2022-08-19T08:09:59;18.70;99.90
19007;DHT22;9636;47.382;8.480;2022-08-19T08:12:28;18.60;99.90
19007;DHT22;9636;47.382;8.480;2022-08-19T08:14:57;18.60;99.90
19007;DHT22;9636;47.382;8.480;2022-08-19T08:17:26;18.70;99.90
19007;DHT22;9636;47.382;8.480;2022-08-19T08:19:53;18.70;99.90
19007;DHT22;9636;47.382;8.480;2022-08-19T08:22:22;18.70;99.90
19007;DHT22;9636;47.382;8.480;2022-08-19T08:25:10;18.80;99.90
19007;DHT22;9636;47.382;8.480;2022-08-19T08:27:38;18.70;99.90
19007;DHT22;9636;47.382;8.480;2022-08-19T08:30:07;18.80;99.90
19007;DHT22;9636;47.382;8.480;2022-08-19T08:32:35;18.80;99.90
19007;DHT22;9636;47.382;8.480;2022-08-19T08:35:03;18.80;99.90
19007;DHT22;9636;47.382;8.480;2022-08-19T08:37:31;18.90;99.90
19007;DHT22;9636;47.382;8.480;2022-08-19T08:39:59;18.80;99.90
19007;DHT22;9636;47.382;8.480;2022-08-19T08:42:32;18.70;99.90
19007;DHT22;9636;47.382;8.480;2022-08-19T08:45:02;18.60;99.90
19007;DHT22;9636;47.382;8.480;2022-08-19T08:47:34;18.70;99.90
19007;DHT22;9636;47.382;8.480;2022-08-19T08:50:05;18.80;99.90
19007;DHT22;9636;47.382;8.480;2022-08-19T08:52:37;18.70;99.90
19007;DHT22;9636;47.382;8.480;2022-08-19T08:55:11;18.80;99.90
19007;DHT22;9636;47.382;8.480;2022-08-19T08:57:42;18.80;99.90
19007;DHT22;9636;47.382;8.480;2022-08-19T09:00:15;18.80;99.90
19007;DHT22;9636;47.382;8.480;2022-08-19T09:02:43;18.80;99.90
19007;DHT22;9636;47.382;8.480;2022-08-19T09:05:11;18.90;99.90
19007;DHT22;9636;47.382;8.480;2022-08-19T09:07:46;18.80;99.90
19007;DHT22;9636;47.382;8.480;2022-08-19T09:10:19;18.70;99.90
19007;DHT22;9636;47.382;8.480;2022-08-19T09:12:54;18.80;99.90
19007;DHT22;9636;47.382;8.480;2022-08-19T09:15:29;18.80;99.90
19007;DHT22;9636;47.382;8.480;2022-08-19T09:17:59;18.60;99.90
19007;DHT22;9636;47.382;8.480;2022-08-19T09:20:27;18.50;99.90
19007;DHT22;9636;47.382;8.480;2022-08-19T09:22:55;18.60;99.90
19007;DHT22;9636;47.382;8.480;2022-08-19T09:25:22;18.70;99.90
19007;DHT22;9636;47.382;8.480;2022-08-19T09:27:50;18.70;99.90
19007;DHT22;9636;47.382;8.480;2022-08-19T09:30:21;18.70;99.90
19007;DHT22;9636;47.382;8.480;2022-08-19T09:32:49;18.70;99.90
19007;DHT22;9636;47.382;8.480;2022-08-19T09:35:19;18.60;99.90
19007;DHT22;9636;47.382;8.480;2022-08-19T09:37:48;18.60;99.90
19007;DHT22;9636;47.382;8.480;2022-08-19T09:40:17;18.60;99.90
19007;DHT22;9636;47.382;8.480;2022-08-19T09:42:46;18.60;99.90
19007;DHT22;9636;47.382;8.480;2022-08-19T09:45:13;18.40;99.90
19007;DHT22;9636;47.382;8.480;2022-08-19T09:47:40;18.40;99.90
19007;DHT22;9636;47.382;8.480;2022-08-19T09:50:10;18.50;99.90
19007;DHT22;9636;47.382;8.480;2022-08-19T09:52:37;18.50;99.90
19007;DHT22;9636;47.382;8.480;2022-08-19T09:55:05;18.50;99.90
19007;DHT22;9636;47.382;8.480;2022-08-19T09:57:34;18.60;99.90
19007;DHT22;9636;47.382;8.480;2022-08-19T10:00:03;18.70;99.90
19007;DHT22;9636;47.382;8.480;2022-08-19T10:02:30;18.60;99.90
19007;DHT22;9636;47.382;8.480;2022-08-19T10:04:56;18.50;99.90
19007;DHT22;9636;47.382;8.480;2022-08-19T10:07:40;18.60;99.90
19007;DHT22;9636;47.382;8.480;2022-08-19T10:10:08;18.50;99.90
19007;DHT22;9636;47.382;8.480;2022-08-19T10:12:37;18.60;99.90
19007;DHT22;9636;47.382;8.480;2022-08-19T10:15:05;18.60;99.90
19007;DHT22;9636;47.382;8.480;2022-08-19T10:17:33;18.60;99.90
19007;DHT22;9636;47.382;8.480;2022-08-19T10:20:02;18.70;99.90
19007;DHT22;9636;47.382;8.480;2022-08-19T10:22:30;18.70;99.90
19007;DHT22;9636;47.382;8.480;2022-08-19T10:24:59;18.60;99.90
19007;DHT22;9636;47.382;8.480;2022-08-19T10:27:26;18.60;99.90
19007;DHT22;9636;47.382;8.480;2022-08-19T10:29:54;18.70;99.90
19007;DHT22;9636;47.382;8.480;2022-08-19T10:32:21;18.70;99.90
19007;DHT22;9636;47.382;8.480;2022-08-19T10:34:50;18.70;99.90
19007;DHT22;9636;47.382;8.480;2022-08-19T10:37:17;18.60;99.90
19007;DHT22;9636;47.382;8.480;2022-08-19T10:39:46;18.70;99.90
19007;DHT22;9636;47.382;8.480;2022-08-19T10:42:13;18.70;99.90
19007;DHT22;9636;47.382;8.480;2022-08-19T10:44:41;18.60;99.90
19007;DHT22;9636;47.382;8.480;2022-08-19T10:47:10;18.60;99.90
19007;DHT22;9636;47.382;8.480;2022-08-19T10:49:37;18.70;99.90
19007;DHT22;9636;47.382;8.480;2022-08-19T10:52:24;18.80;99.90
19007;DHT22;9636;47.382;8.480;2022-08-19T10:54:59;18.80;99.90
19007;DHT22;9636;47.382;8.480;2022-08-19T10:57:43;18.80;99.90
19007;DHT22;9636;47.382;8.480;2022-08-19T11:00:11;18.80;99.90
19007;DHT22;9636;47.382;8.480;2022-08-19T11:02:40;18.80;99.90
19007;DHT22;9636;47.382;8.480;2022-08-19T11:05:08;18.80;99.90
19007;DHT22;9636;47.382;8.480;2022-08-19T11:07:36;18.70;99.90
19007;DHT22;9636;47.382;8.480;2022-08-19T11:10:04;18.80;99.90
19007;DHT22;9636;47.382;8.480;2022-08-19T11:12:31;18.80;99.90
19007;DHT22;9636;47.382;8.480;2022-08-19T11:14:58;18.90;99.90
19007;DHT22;9636;47.382;8.480;2022-08-19T11:17:25;18.90;99.90
19007;DHT22;9636;47.382;8.480;2022-08-19T11:19:53;18.80;99.90
19007;DHT22;9636;47.382;8.480;2022-08-19T11:22:20;18.90;99.90
19007;DHT22;9636;47.382;8.480;2022-08-19T11:24:47;18.90;99.90
19007;DHT22;9636;47.382;8.480;2022-08-19T11:27:13;18.90;99.90
19007;DHT22;9636;47.382;8.480;2022-08-19T11:29:40;18.90;99.90
19007;DHT22;9636;47.382;8.480;2022-08-19T11:32:09;18.90;99.90
19007;DHT22;9636;47.382;8.480;2022-08-19T11:34:36;18.90;99.90
19007;DHT22;9636;47.382;8.480;2022-08-19T11:37:06;19.00;99.90
19007;DHT22;9636;47.382;8.480;2022-08-19T11:39:35;18.90;99.90
19007;DHT22;9636;47.382;8.480;2022-08-19T11:42:03;18.90;99.90
19007;DHT22;9636;47.382;8.480;2022-08-19T11:44:52;18.90;99.90
19007;DHT22;9636;47.382;8.480;2022-08-19T11:47:19;18.90;99.90
19007;DHT22;9636;47.382;8.480;2022-08-19T11:49:46;19.00;99.90
19007;DHT22;9636;47.382;8.480;2022-08-19T11:52:15;19.00;99.90
19007;DHT22;9636;47.382;8.480;2022-08-19T11:54:41;19.10;99.90
19007;DHT22;9636;47.382;8.480;2022-08-19T11:57:08;19.10;99.90
19007;DHT22;9636;47.382;8.480;2022-08-19T11:59:35;19.20;99.90
19007;DHT22;9636;47.382;8.480;2022-08-19T12:02:02;19.20;99.90
19007;DHT22;9636;47.382;8.480;2022-08-19T12:04:29;19.10;99.90
19007;DHT22;9636;47.382;8.480;2022-08-19T12:06:55;19.30;99.90
19007;DHT22;9636;47.382;8.480;2022-08-19T12:09:23;19.20;99.90
19007;DHT22;9636;47.382;8.480;2022-08-19T12:11:50;19.30;99.90
19007;DHT22;9636;47.382;8.480;2022-08-19T12:14:17;19.20;99.90
19007;DHT22;9636;47.382;8.480;2022-08-19T12:16:45;19.30;99.90
19007;DHT22;9636;47.382;8.480;2022-08-19T12:19:12;19.30;99.90
19007;DHT22;9636;47.382;8.480;2022-08-19T12:21:39;19.40;99.90
19007;DHT22;9636;47.382;8.480;2022-08-19T12:24:06;19.40;99.90
19007;DHT22;9636;47.382;8.480;2022-08-19T12:26:35;19.40;99.90
19007;DHT22;9636;47.382;8.480;2022-08-19T12:29:02;19.30;99.90
19007;DHT22;9636;47.382;8.480;2022-08-19T12:31:30;19.10;99.90
19007;DHT22;9636;47.382;8.480;2022-08-19T12:33:57;19.20;99.90
19007;DHT22;9636;47.382;8.480;2022-08-19T12:36:28;19.20;99.90
19007;DHT22;9636;47.382;8.480;2022-08-19T12:38:54;19.30;99.90
19007;DHT22;9636;47.382;8.480;2022-08-19T12:41:23;19.10;99.90
19007;DHT22;9636;47.382;8.480;2022-08-19T12:43:52;19.20;99.90
19007;DHT22;9636;47.382;8.480;2022-08-19T12:46:19;19.20;99.90
19007;DHT22;9636;47.382;8.480;2022-08-19T12:48:46;19.20;99.90
19007;DHT22;9636;47.382;8.480;2022-08-19T12:51:15;19.10;99.90
19007;DHT22;9636;47.382;8.480;2022-08-19T12:53:42;19.00;99.90
19007;DHT22;9636;47.382;8.480;2022-08-19T12:56:11;19.10;99.90
19007;DHT22;9636;47.382;8.480;2022-08-19T12:58:40;19.00;99.90
19007;DHT22;9636;47.382;8.480;2022-08-19T13:01:10;19.10;99.90
19007;DHT22;9636;47.382;8.480;2022-08-19T13:03:37;19.10;99.90
19007;DHT22;9636;47.382;8.480;2022-08-19T13:06:05;19.20;99.90
19007;DHT22;9636;47.382;8.480;2022-08-19T13:08:32;19.30;99.90
19007;DHT22;9636;47.382;8.480;2022-08-19T13:11:07;19.20;99.90
19007;DHT22;9636;47.382;8.480;2022-08-19T13:13:37;19.20;99.90
19007;DHT22;9636;47.382;8.480;2022-08-19T13:16:06;19.30;99.90
19007;DHT22;9636;47.382;8.480;2022-08-19T13:18:35;19.20;99.90
19007;DHT22;9636;47.382;8.480;2022-08-19T13:21:03;19.30;99.90
19007;DHT22;9636;47.382;8.480;2022-08-19T13:23:30;19.30;99.90
19007;DHT22;9636;47.382;8.480;2022-08-19T13:25:58;19.10;99.90
19007;DHT22;9636;47.382;8.480;2022-08-19T13:28:25;19.10;99.90
19007;DHT22;9636;47.382;8.480;2022-08-19T13:31:15;19.10;99.90
19007;DHT22;9636;47.382;8.480;2022-08-19T13:34:00;19.20;99.90
19007;DHT22;9636;47.382;8.480;2022-08-19T13:36:27;19.20;99.90
19007;DHT22;9636;47.382;8.480;2022-08-19T13:38:54;19.00;99.90
19007;DHT22;9636;47.382;8.480;2022-08-19T13:41:22;19.20;99.90
19007;DHT22;9636;47.382;8.480;2022-08-19T13:43:49;19.30;99.90
19007;DHT22;9636;47.382;8.480;2022-08-19T13:46:15;19.20;99.90
19007;DHT22;9636;47.382;8.480;2022-08-19T13:48:42;19.40;99.90
19007;DHT22;9636;47.382;8.480;2022-08-19T13:51:11;19.30;99.90
19007;DHT22;9636;47.382;8.480;2022-08-19T13:53:39;19.30;99.90
19007;DHT22;9636;47.382;8.480;2022-08-19T13:56:08;19.30;99.90
19007;DHT22;9636;47.382;8.480;2022-08-19T13:58:36;19.30;99.90
19007;DHT22;9636;47.382;8.480;2022-08-19T14:01:03;19.40;99.90
19007;DHT22;9636;47.382;8.480;2022-08-19T14:03:31;19.40;99.90
19007;DHT22;9636;47.382;8.480;2022-08-19T14:05:58;19.30;99.90
19007;DHT22;9636;47.382;8.480;2022-08-19T14:08:26;19.40;99.90
19007;DHT22;9636;47.382;8.480;2022-08-19T14:10:54;19.30;99.90
19007;DHT22;9636;47.382;8.480;2022-08-19T14:13:23;19.40;99.90
19007;DHT22;9636;47.382;8.480;2022-08-19T14:15:50;19.50;99.90
19007;DHT22;9636;47.382;8.480;2022-08-19T14:18:19;19.60;99.90
19007;DHT22;9636;47.382;8.480;2022-08-19T14:20:47;19.60;99.90
19007;DHT22;9636;47.382;8.480;2022-08-19T14:23:14;19.70;99.90
19007;DHT22;9636;47.382;8.480;2022-08-19T14:25:43;19.70;99.90
19007;DHT22;9636;47.382;8.480;2022-08-19T14:28:10;19.70;99.90
19007;DHT22;9636;47.382;8.480;2022-08-19T14:30:37;19.70;99.90
19007;DHT22;9636;47.382;8.480;2022-08-19T14:33:05;19.70;99.90
19007;DHT22;9636;47.382;8.480;2022-08-19T14:35:34;19.70;99.90
19007;DHT22;9636;47.382;8.480;2022-08-19T14:38:01;19.60;99.90
19007;DHT22;9636;47.382;8.480;2022-08-19T14:40:29;19.60;99.90
19007;DHT22;9636;47.382;8.480;2022-08-19T14:43:00;19.70;99.90
19007;DHT22;9636;47.382;8.480;2022-08-19T14:45:29;19.70;99.90
19007;DHT22;9636;47.382;8.480;2022-08-19T14:47:57;19.80;99.90
19007;DHT22;9636;47.382;8.480;2022-08-19T14:50:24;19.80;99.90
19007;DHT22;9636;47.382;8.480;2022-08-19T14:52:58;19.80;99.90
19007;DHT22;9636;47.382;8.480;2022-08-19T14:55:26;19.80;99.90
19007;DHT22;9636;47.382;8.480;2022-08-19T14:57:53;19.80;99.90
19007;DHT22;9636;47.382;8.480;2022-08-19T15:00:22;19.90;99.90
19007;DHT22;9636;47.382;8.480;2022-08-19T15:02:50;19.90;99.90
19007;DHT22;9636;47.382;8.480;2022-08-19T15:05:17;19.70;99.90
19007;DHT22;9636;47.382;8.480;2022-08-19T15:07:44;19.80;99.90
19007;DHT22;9636;47.382;8.480;2022-08-19T15:10:12;19.90;99.90
19007;DHT22;9636;47.382;8.480;2022-08-19T15:12:40;20.00;99.90
19007;DHT22;9636;47.382;8.480;2022-08-19T15:15:10;20.10;99.90
19007;DHT22;9636;47.382;8.480;2022-08-19T15:17:40;20.10;99.90
19007;DHT22;9636;47.382;8.480;2022-08-19T15:20:09;20.00;99.90
19007;DHT22;9636;47.382;8.480;2022-08-19T15:22:36;20.00;99.90
19007;DHT22;9636;47.382;8.480;2022-08-19T15:25:05;20.00;99.90
19007;DHT22;9636;47.382;8.480;2022-08-19T15:27:32;19.90;99.90
19007;DHT22;9636;47.382;8.480;2022-08-19T15:29:59;19.90;99.90
19007;DHT22;9636;47.382;8.480;2022-08-19T15:32:26;19.90;99.90
19007;DHT22;9636;47.382;8.480;2022-08-19T15:34:55;19.90;99.90
19007;DHT22;9636;47.382;8.480;2022-08-19T15:37:22;19.80;99.90
19007;DHT22;9636;47.382;8.480;2022-08-19T15:39:50;19.80;99.90
19007;DHT22;9636;47.382;8.480;2022-08-19T15:42:17;19.90;99.90
19007;DHT22;9636;47.382;8.480;2022-08-19T15:44:44;19.90;99.90
19007;DHT22;9636;47.382;8.480;2022-08-19T15:47:11;19.80;99.90
19007;DHT22;9636;47.382;8.480;2022-08-19T15:49:38;19.70;99.90
19007;DHT22;9636;47.382;8.480;2022-08-19T15:52:07;19.70;99.90
19007;DHT22;9636;47.382;8.480;2022-08-19T15:58:09;19.70;99.90
19007;DHT22;9636;47.382;8.480;2022-08-19T16:01:00;19.60;99.90
19007;DHT22;9636;47.382;8.480;2022-08-19T16:36:17;19.50;99.90
19007;DHT22;9636;47.382;8.480;2022-08-19T16:38:45;19.50;99.90
19007;DHT22;9636;47.382;8.480;2022-08-19T16:41:13;19.50;99.90
19007;DHT22;9636;47.382;8.480;2022-08-19T16:43:40;19.50;99.90
19007;DHT22;9636;47.382;8.480;2022-08-19T16:46:22;19.40;99.90
19007;DHT22;9636;47.382;8.480;2022-08-19T16:48:50;19.40;99.90
19007;DHT22;9636;47.382;8.480;2022-08-19T16:51:19;19.30;99.90
19007;DHT22;9636;47.382;8.480;2022-08-19T16:53:47;19.30;99.90
19007;DHT22;9636;47.382;8.480;2022-08-19T16:56:16;19.40;99.90
19007;DHT22;9636;47.382;8.480;2022-08-19T16:58:44;19.30;99.90
19007;DHT22;9636;47.382;8.480;2022-08-19T17:01:13;19.30;99.90
19007;DHT22;9636;47.382;8.480;2022-08-19T17:04:35;19.30;99.90
19007;DHT22;9636;47.382;8.480;2022-08-19T17:10:06;19.20;99.90
19007;DHT22;9636;47.382;8.480;2022-08-19T17:12:33;19.10;99.90
19007;DHT22;9636;47.382;8.480;2022-08-19T17:15:03;19.10;99.90
19007;DHT22;9636;47.382;8.480;2022-08-19T17:17:33;19.10;99.90
19007;DHT22;9636;47.382;8.480;2022-08-19T17:20:00;19.10;99.90
19007;DHT22;9636;47.382;8.480;2022-08-19T17:22:30;19.10;99.90
19007;DHT22;9636;47.382;8.480;2022-08-19T17:25:01;19.10;99.90
19007;DHT22;9636;47.382;8.480;2022-08-19T17:27:42;19.10;99.90
19007;DHT22;9636;47.382;8.480;2022-08-19T17:30:30;19.10;99.90
19007;DHT22;9636;47.382;8.480;2022-08-19T17:32:57;19.00;99.90
19007;DHT22;9636;47.382;8.480;2022-08-19T17:35:24;19.00;99.90
19007;DHT22;9636;47.382;8.480;2022-08-19T17:37:52;19.10;99.90
19007;DHT22;9636;47.382;8.480;2022-08-19T17:40:19;19.00;99.90
19007;DHT22;9636;47.382;8.480;2022-08-19T17:42:57;19.10;99.90
19007;DHT22;9636;47.382;8.480;2022-08-19T17:45:33;19.00;99.90
19007;DHT22;9636;47.382;8.480;2022-08-19T17:48:00;19.00;99.90
19007;DHT22;9636;47.382;8.480;2022-08-19T17:50:31;19.00;99.90
19007;DHT22;9636;47.382;8.480;2022-08-19T17:52:58;19.00;99.90
19007;DHT22;9636;47.382;8.480;2022-08-19T17:55:26;19.00;99.90
19007;DHT22;9636;47.382;8.480;2022-08-19T17:57:54;19.10;99.90
19007;DHT22;9636;47.382;8.480;2022-08-19T18:00:22;19.00;99.90
19007;DHT22;9636;47.382;8.480;2022-08-19T18:02:51;19.00;99.90
19007;DHT22;9636;47.382;8.480;2022-08-19T18:05:19;19.00;99.90
19007;DHT22;9636;47.382;8.480;2022-08-19T18:07:48;18.90;99.90
19007;DHT22;9636;47.382;8.480;2022-08-19T18:10:16;18.90;99.90
19007;DHT22;9636;47.382;8.480;2022-08-19T18:12:44;18.90;99.90
19007;DHT22;9636;47.382;8.480;2022-08-19T18:15:13;18.90;99.90
19007;DHT22;9636;47.382;8.480;2022-08-19T18:17:41;18.90;99.90
19007;DHT22;9636;47.382;8.480;2022-08-19T18:20:10;18.90;99.90
19007;DHT22;9636;47.382;8.480;2022-08-19T18:22:40;18.90;99.90
19007;DHT22;9636;47.382;8.480;2022-08-19T18:25:10;18.80;99.90
19007;DHT22;9636;47.382;8.480;2022-08-19T18:27:37;18.80;99.90
19007;DHT22;9636;47.382;8.480;2022-08-19T18:30:06;18.90;99.90
19007;DHT22;9636;47.382;8.480;2022-08-19T18:32:36;18.80;99.90
19007;DHT22;9636;47.382;8.480;2022-08-19T18:35:06;18.90;99.90
19007;DHT22;9636;47.382;8.480;2022-08-19T18:37:35;18.90;99.90
19007;DHT22;9636;47.382;8.480;2022-08-19T18:40:07;18.70;99.90
19007;DHT22;9636;47.382;8.480;2022-08-19T18:42:52;18.70;99.90
19007;DHT22;9636;47.382;8.480;2022-08-19T18:47:56;18.70;99.90
19007;DHT22;9636;47.382;8.480;2022-08-19T18:49:00;18.70;99.90
19007;DHT22;9636;47.382;8.480;2022-08-19T18:51:32;18.70;99.90
19007;DHT22;9636;47.382;8.480;2022-08-19T18:56:02;18.70;99.90
19007;DHT22;9636;47.382;8.480;2022-08-19T18:57:28;18.70;99.90
19007;DHT22;9636;47.382;8.480;2022-08-19T19:00:10;18.60;99.90
19007;DHT22;9636;47.382;8.480;2022-08-19T19:03:09;18.70;99.90
19007;DHT22;9636;47.382;8.480;2022-08-19T19:05:43;18.60;99.90
19007;DHT22;9636;47.382;8.480;2022-08-19T19:08:11;18.70;99.90
19007;DHT22;9636;47.382;8.480;2022-08-19T19:17:25;18.70;99.90
19007;DHT22;9636;47.382;8.480;2022-08-19T19:20:11;18.60;99.90
19007;DHT22;9636;47.382;8.480;2022-08-19T19:25:19;18.60;99.90
19007;DHT22;9636;47.382;8.480;2022-08-19T19:26:42;18.60;99.90
19007;DHT22;9636;47.382;8.480;2022-08-19T19:29:41;18.60;99.90
19007;DHT22;9636;47.382;8.480;2022-08-19T19:32:17;18.60;99.90
19007;DHT22;9636;47.382;8.480;2022-08-19T19:38:19;18.50;99.90
19007;DHT22;9636;47.382;8.480;2022-08-19T19:40:50;18.60;99.90
19007;DHT22;9636;47.382;8.480;2022-08-19T19:43:18;18.60;99.90
19007;DHT22;9636;47.382;8.480;2022-08-19T19:45:47;18.60;99.90
19007;DHT22;9636;47.382;8.480;2022-08-19T19:51:33;18.50;99.90
19007;DHT22;9636;47.382;8.480;2022-08-19T19:51:44;18.60;99.90
19007;DHT22;9636;47.382;8.480;2022-08-19T19:54:12;18.50;99.90
19007;DHT22;9636;47.382;8.480;2022-08-19T19:57:13;18.50;99.90
19007;DHT22;9636;47.382;8.480;2022-08-19T19:59:31;18.50;99.90
19007;DHT22;9636;47.382;8.480;2022-08-19T20:05:05;18.30;99.90
19007;DHT22;9636;47.382;8.480;2022-08-19T20:07:35;18.40;99.90
19007;DHT22;9636;47.382;8.480;2022-08-19T20:13:39;18.40;99.90
19007;DHT22;9636;47.382;8.480;2022-08-19T20:16:06;18.30;99.90
19007;DHT22;9636;47.382;8.480;2022-08-19T20:18:39;18.30;99.90
19007;DHT22;9636;47.382;8.480;2022-08-19T20:21:08;18.40;99.90
19007;DHT22;9636;47.382;8.480;2022-08-19T20:23:36;18.40;99.90
19007;DHT22;9636;47.382;8.480;2022-08-19T20:26:03;18.40;99.90
19007;DHT22;9636;47.382;8.480;2022-08-19T20:28:39;18.50;99.90
19007;DHT22;9636;47.382;8.480;2022-08-19T20:31:25;18.40;99.90
19007;DHT22;9636;47.382;8.480;2022-08-19T20:33:52;18.30;99.90
19007;DHT22;9636;47.382;8.480;2022-08-19T20:36:19;18.40;99.90
19007;DHT22;9636;47.382;8.480;2022-08-19T20:38:49;18.40;99.90
19007;DHT22;9636;47.382;8.480;2022-08-19T20:41:17;18.40;99.90
19007;DHT22;9636;47.382;8.480;2022-08-19T20:43:45;18.30;99.90
19007;DHT22;9636;47.382;8.480;2022-08-19T20:46:18;18.30;99.90
19007;DHT22;9636;47.382;8.480;2022-08-19T20:48:46;18.20;99.90
19007;DHT22;9636;47.382;8.480;2022-08-19T20:51:13;18.20;99.90
19007;DHT22;9636;47.382;8.480;2022-08-19T20:53:41;18.20;99.90
19007;DHT22;9636;47.382;8.480;2022-08-19T20:56:10;18.20;99.90
19007;DHT22;9636;47.382;8.480;2022-08-19T20:58:36;18.20;99.90
19007;DHT22;9636;47.382;8.480;2022-08-19T21:01:05;18.20;99.90
19007;DHT22;9636;47.382;8.480;2022-08-19T21:03:38;18.20;99.90
19007;DHT22;9636;47.382;8.480;2022-08-19T21:06:07;18.30;99.90
19007;DHT22;9636;47.382;8.480;2022-08-19T21:08:34;18.20;99.90
19007;DHT22;9636;47.382;8.480;2022-08-19T21:11:01;18.20;99.90
19007;DHT22;9636;47.382;8.480;2022-08-19T21:13:30;18.30;99.90
19007;DHT22;9636;47.382;8.480;2022-08-19T21:15:57;18.30;99.90
19007;DHT22;9636;47.382;8.480;2022-08-19T21:18:24;18.30;99.90
19007;DHT22;9636;47.382;8.480;2022-08-19T21:20:52;18.20;99.90
19007;DHT22;9636;47.382;8.480;2022-08-19T21:23:22;18.20;99.90
19007;DHT22;9636;47.382;8.480;2022-08-19T21:25:50;18.30;99.90
19007;DHT22;9636;47.382;8.480;2022-08-19T21:28:17;18.30;99.90
19007;DHT22;9636;47.382;8.480;2022-08-19T21:30:46;18.30;99.90
19007;DHT22;9636;47.382;8.480;2022-08-19T21:33:13;18.30;99.90
19007;DHT22;9636;47.382;8.480;2022-08-19T21:35:40;18.30;99.90
19007;DHT22;9636;47.382;8.480;2022-08-19T21:38:07;18.20;99.90
19007;DHT22;9636;47.382;8.480;2022-08-19T21:40:33;18.20;99.90
19007;DHT22;9636;47.382;8.480;2022-08-19T21:43:00;18.20;99.90
19007;DHT22;9636;47.382;8.480;2022-08-19T21:45:28;18.20;99.90
19007;DHT22;9636;47.382;8.480;2022-08-19T21:47:56;18.30;99.90
19007;DHT22;9636;47.382;8.480;2022-08-19T21:50:23;18.20;99.90
19007;DHT22;9636;47.382;8.480;2022-08-19T21:52:50;18.30;99.90
19007;DHT22;9636;47.382;8.480;2022-08-19T21:55:19;18.30;99.90
19007;DHT22;9636;47.382;8.480;2022-08-19T21:57:46;18.30;99.90
19007;DHT22;9636;47.382;8.480;2022-08-19T22:00:16;18.30;99.90
19007;DHT22;9636;47.382;8.480;2022-08-19T22:02:43;18.30;99.90
19007;DHT22;9636;47.382;8.480;2022-08-19T22:05:12;18.30;99.90
19007;DHT22;9636;47.382;8.480;2022-08-19T22:07:39;18.20;99.90
19007;DHT22;9636;47.382;8.480;2022-08-19T22:10:08;18.20;99.90
19007;DHT22;9636;47.382;8.480;2022-08-19T22:12:37;18.10;99.90
19007;DHT22;9636;47.382;8.480;2022-08-19T22:15:09;18.00;99.90
19007;DHT22;9636;47.382;8.480;2022-08-19T22:17:37;17.90;99.90
19007;DHT22;9636;47.382;8.480;2022-08-19T22:20:06;17.90;99.90
19007;DHT22;9636;47.382;8.480;2022-08-19T22:22:37;17.90;99.90
19007;DHT22;9636;47.382;8.480;2022-08-19T22:25:06;18.00;99.90
19007;DHT22;9636;47.382;8.480;2022-08-19T22:27:34;17.90;99.90
19007;DHT22;9636;47.382;8.480;2022-08-19T22:30:01;17.90;99.90
19007;DHT22;9636;47.382;8.480;2022-08-19T22:32:28;17.90;99.90
19007;DHT22;9636;47.382;8.480;2022-08-19T22:34:56;17.90;99.90
19007;DHT22;9636;47.382;8.480;2022-08-19T22:37:24;17.90;99.90
19007;DHT22;9636;47.382;8.480;2022-08-19T22:39:53;17.90;99.90
19007;DHT22;9636;47.382;8.480;2022-08-19T22:42:20;17.90;99.90
19007;DHT22;9636;47.382;8.480;2022-08-19T22:44:47;18.00;99.90
19007;DHT22;9636;47.382;8.480;2022-08-19T22:47:14;18.00;99.90
19007;DHT22;9636;47.382;8.480;2022-08-19T22:49:42;18.00;99.90